createdAt,value
2018-04-19T00:02:18.421Z,15.26
2018-04-19T00:04:45.951Z,15.26
2018-04-19T00:07:13.495Z,15.22
2018-04-19T00:09:41.072Z,15.22
2018-04-19T00:12:08.538Z,15.26
2018-04-19T00:14:36.016Z,15.26
2018-04-19T00:17:03.492Z,15.25
2018-04-19T00:19:30.976Z,15.22
2018-04-19T00:21:58.477Z,15.16
2018-04-19T00:24:25.947Z,15.12
2018-04-19T00:26:53.472Z,15.09
2018-04-19T00:29:20.939Z,15.06
2018-04-19T00:31:48.399Z,15.02
2018-04-19T00:34:15.890Z,15.04
2018-04-19T00:36:43.379Z,15.03
2018-04-19T00:39:10.906Z,15.01
2018-04-19T00:41:38.412Z,14.98
2018-04-19T00:44:05.872Z,14.95
2018-04-19T00:46:33.383Z,14.93
2018-04-19T00:49:00.914Z,14.91
2018-04-19T00:51:28.424Z,14.89
2018-04-19T00:53:55.894Z,14.87
2018-04-19T00:56:23.382Z,14.84
2018-04-19T00:58:50.935Z,14.82
2018-04-19T01:01:18.459Z,14.80
2018-04-19T01:03:45.956Z,14.82
2018-04-19T01:06:13.450Z,14.80
2018-04-19T01:08:40.957Z,14.75
2018-04-19T01:11:08.543Z,14.73
2018-04-19T01:13:36.036Z,14.69
2018-04-19T01:16:03.497Z,14.65
2018-04-19T01:18:30.985Z,14.63
2018-04-19T01:20:58.495Z,14.61
2018-04-19T01:23:25.959Z,14.62
2018-04-19T01:25:53.423Z,14.61
2018-04-19T01:28:20.917Z,14.58
2018-04-19T01:30:48.434Z,14.56
2018-04-19T01:33:15.908Z,14.52
2018-04-19T01:35:55.476Z,14.48
2018-04-19T01:38:22.960Z,14.48
2018-04-19T01:40:50.428Z,14.47
2018-04-19T01:43:17.918Z,14.47
2018-04-19T01:45:45.435Z,14.46
2018-04-19T01:48:12.924Z,14.45
2018-04-19T01:50:40.480Z,14.40
2018-04-19T01:53:08.020Z,14.34
2018-04-19T01:55:35.480Z,14.29
2018-04-19T01:58:03.004Z,14.27
2018-04-19T02:00:30.584Z,14.09
2018-04-19T02:02:58.083Z,13.98
2018-04-19T02:05:25.605Z,13.93
2018-04-19T02:07:53.171Z,13.92
2018-04-19T02:10:20.635Z,13.97
2018-04-19T02:12:48.092Z,14.03
2018-04-19T02:15:15.612Z,14.05
2018-04-19T02:17:43.089Z,14.03
2018-04-19T02:20:10.580Z,13.99
2018-04-19T02:22:38.089Z,13.98
2018-04-19T02:25:05.552Z,13.97
2018-04-19T02:27:33.091Z,13.99
2018-04-19T02:30:00.549Z,14.01
2018-04-19T02:32:28.050Z,14.04
2018-04-19T02:34:55.497Z,14.05
2018-04-19T02:37:23.029Z,14.08
2018-04-19T02:39:50.544Z,14.10
2018-04-19T02:42:18.031Z,14.10
2018-04-19T02:44:45.533Z,14.05
2018-04-19T02:47:13.011Z,13.99
2018-04-19T02:49:40.767Z,13.90
2018-04-19T02:52:08.268Z,13.84
2018-04-19T02:54:35.761Z,13.77
2018-04-19T02:57:03.248Z,13.73
2018-04-19T02:59:30.737Z,13.68
2018-04-19T03:01:58.267Z,13.64
2018-04-19T03:04:25.835Z,13.67
2018-04-19T03:06:53.348Z,13.66
2018-04-19T03:09:20.893Z,13.64
2018-04-19T03:11:48.403Z,13.64
2018-04-19T03:14:15.858Z,13.66
2018-04-19T03:16:43.341Z,13.62
2018-04-19T03:19:10.871Z,13.53
2018-04-19T03:21:38.347Z,13.41
2018-04-19T03:24:05.839Z,13.36
2018-04-19T03:26:33.305Z,13.32
2018-04-19T03:29:00.918Z,13.25
2018-04-19T03:31:28.367Z,13.20
2018-04-19T03:33:55.857Z,13.20
2018-04-19T03:36:23.420Z,13.23
2018-04-19T03:38:51.799Z,13.25
2018-04-19T03:41:19.363Z,13.27
2018-04-19T03:43:46.854Z,13.29
2018-04-19T03:46:14.371Z,13.33
2018-04-19T03:48:41.900Z,13.32
2018-04-19T03:51:09.372Z,13.28
2018-04-19T03:53:36.843Z,13.23
2018-04-19T03:56:04.324Z,13.16
2018-04-19T03:58:31.817Z,13.15
2018-04-19T04:00:59.309Z,13.17
2018-04-19T04:03:26.814Z,13.16
2018-04-19T04:05:54.305Z,13.17
2018-04-19T04:08:21.795Z,13.18
2018-04-19T04:10:49.345Z,13.20
2018-04-19T04:13:16.811Z,13.23
2018-04-19T04:15:44.313Z,13.26
2018-04-19T04:18:23.790Z,13.30
2018-04-19T04:21:03.229Z,13.35
2018-04-19T04:23:46.618Z,13.39
2018-04-19T04:26:14.246Z,13.44
2018-04-19T04:28:41.707Z,13.48
2018-04-19T04:31:09.272Z,13.51
2018-04-19T04:33:36.729Z,13.44
2018-04-19T04:36:04.186Z,13.40
2018-04-19T04:38:31.740Z,13.60
2018-04-19T04:40:59.223Z,13.90
2018-04-19T04:43:26.801Z,13.97
2018-04-19T04:45:54.321Z,13.89
2018-04-19T04:48:21.820Z,13.81
2018-04-19T04:50:49.289Z,13.79
2018-04-19T04:53:16.820Z,13.82
2018-04-19T04:55:44.352Z,13.82
2018-04-19T04:58:12.319Z,13.85
2018-04-19T05:00:39.840Z,13.91
2018-04-19T05:03:07.350Z,13.96
2018-04-19T05:05:34.800Z,14.07
2018-04-19T05:08:02.292Z,14.15
2018-04-19T05:10:29.812Z,14.25
2018-04-19T05:12:57.305Z,14.32
2018-04-19T05:15:24.797Z,14.36
2018-04-19T05:17:52.270Z,14.40
2018-04-19T05:20:19.793Z,14.46
2018-04-19T05:22:47.320Z,14.58
2018-04-19T05:25:14.820Z,14.64
2018-04-19T05:27:42.356Z,14.65
2018-04-19T05:30:09.915Z,14.70
2018-04-19T05:32:37.426Z,14.79
2018-04-19T05:35:04.883Z,14.88
2018-04-19T05:37:32.440Z,14.96
2018-04-19T05:40:00.008Z,15.05
2018-04-19T05:42:27.480Z,15.11
2018-04-19T05:44:55.000Z,15.19
2018-04-19T05:47:22.455Z,15.24
2018-04-19T05:49:49.915Z,15.34
2018-04-19T05:52:17.440Z,15.44
2018-04-19T05:54:44.954Z,15.49
2018-04-19T05:57:12.458Z,15.56
2018-04-19T05:59:39.968Z,15.70
2018-04-19T06:02:07.461Z,15.79
2018-04-19T06:04:35.033Z,15.99
2018-04-19T06:07:02.596Z,16.22
2018-04-19T06:09:30.064Z,16.34
2018-04-19T06:11:57.576Z,16.48
2018-04-19T06:14:25.042Z,16.64
2018-04-19T06:16:52.496Z,16.70
2018-04-19T06:19:19.996Z,16.73
2018-04-19T06:21:47.456Z,16.89
2018-04-19T06:24:14.945Z,16.99
2018-04-19T06:26:42.530Z,17.12
2018-04-19T06:29:10.049Z,17.31
2018-04-19T06:31:37.507Z,17.45
2018-04-19T06:34:04.998Z,17.58
2018-04-19T06:36:32.531Z,17.69
2018-04-19T06:39:00.121Z,17.80
2018-04-19T06:41:27.580Z,17.86
2018-04-19T06:43:55.107Z,17.89
2018-04-19T06:46:22.611Z,18.04
2018-04-19T06:48:50.063Z,18.16
2018-04-19T06:51:17.667Z,18.35
2018-04-19T06:53:45.166Z,18.43
2018-04-19T06:56:12.650Z,18.36
2018-04-19T06:58:40.141Z,18.36
2018-04-19T07:01:07.727Z,18.45
2018-04-19T07:03:35.329Z,18.51
2018-04-19T07:06:02.791Z,18.69
2018-04-19T07:08:30.345Z,18.88
2018-04-19T07:10:57.881Z,19.09
2018-04-19T07:13:25.416Z,19.23
2018-04-19T07:15:52.937Z,19.03
2018-04-19T07:18:20.485Z,18.86
2018-04-19T07:20:48.041Z,18.89
2018-04-19T07:23:15.508Z,18.87
2018-04-19T07:25:43.045Z,18.92
2018-04-19T07:28:10.601Z,19.02
2018-04-19T07:30:38.132Z,18.91
2018-04-19T07:33:05.684Z,18.92
2018-04-19T07:35:33.283Z,18.99
2018-04-19T07:38:00.804Z,19.19
2018-04-19T07:40:28.332Z,19.36
2018-04-19T07:42:55.799Z,19.60
2018-04-19T07:45:23.243Z,19.80
2018-04-19T07:47:50.743Z,19.97
2018-04-19T07:50:18.219Z,19.92
2018-04-19T07:52:45.707Z,19.94
2018-04-19T07:55:13.210Z,20.10
2018-04-19T07:57:40.717Z,20.30
2018-04-19T08:00:08.270Z,20.34
2018-04-19T08:02:35.785Z,20.33
2018-04-19T08:05:03.286Z,20.43
2018-04-19T08:07:30.820Z,20.64
2018-04-19T08:09:58.299Z,20.60
2018-04-19T08:12:25.796Z,20.47
2018-04-19T08:14:53.282Z,20.47
2018-04-19T08:17:20.852Z,20.51
2018-04-19T08:19:48.427Z,20.65
2018-04-19T08:22:16.083Z,20.67
2018-04-19T08:24:43.646Z,20.47
2018-04-19T08:27:11.134Z,20.41
2018-04-19T08:29:38.686Z,20.57
2018-04-19T08:32:06.209Z,20.63
2018-04-19T08:34:33.780Z,20.70
2018-04-19T08:37:01.260Z,20.71
2018-04-19T08:39:28.711Z,20.75
2018-04-19T08:41:56.281Z,20.88
2018-04-19T08:44:23.724Z,21.06
2018-04-19T08:46:51.227Z,21.12
2018-04-19T08:49:18.720Z,21.44
2018-04-19T08:51:46.169Z,21.57
2018-04-19T08:54:13.631Z,21.47
2018-04-19T08:56:41.082Z,21.36
2018-04-19T08:59:08.635Z,21.10
2018-04-19T09:01:36.226Z,21.14
2018-04-19T09:04:03.800Z,21.20
2018-04-19T09:06:31.422Z,21.38
2018-04-19T09:08:58.915Z,21.71
2018-04-19T09:11:26.483Z,21.55
2018-04-19T09:13:53.959Z,21.71
2018-04-19T09:16:21.442Z,21.75
2018-04-19T09:18:48.918Z,21.82
2018-04-19T09:21:16.493Z,21.72
2018-04-19T09:23:43.992Z,21.89
2018-04-19T09:26:11.471Z,21.87
2018-04-19T09:28:38.973Z,21.84
2018-04-19T09:31:06.463Z,21.94
2018-04-19T09:33:33.944Z,22.05
2018-04-19T09:36:01.424Z,22.18
2018-04-19T09:38:28.903Z,22.38
2018-04-19T09:40:56.411Z,22.56
2018-04-19T09:43:23.901Z,22.73
2018-04-19T09:45:51.427Z,22.60
2018-04-19T09:48:18.880Z,22.50
2018-04-19T09:50:46.412Z,22.73
2018-04-19T09:53:13.890Z,22.98
2018-04-19T09:55:41.376Z,23.18
2018-04-19T09:58:08.970Z,23.18
2018-04-19T10:00:42.173Z,23.28
2018-04-19T10:03:15.104Z,23.32
2018-04-19T10:05:47.366Z,23.16
2018-04-19T10:08:14.882Z,23.29
2018-04-19T10:10:42.366Z,23.28
2018-04-19T10:13:09.944Z,23.44
2018-04-19T10:15:37.399Z,23.57
2018-04-19T10:18:04.847Z,23.32
2018-04-19T10:20:32.332Z,23.14
2018-04-19T10:22:59.817Z,23.19
2018-04-19T10:25:27.347Z,23.35
2018-04-19T10:27:54.986Z,23.51
2018-04-19T10:30:22.444Z,23.58
2018-04-19T10:32:49.899Z,23.34
2018-04-19T10:35:17.386Z,23.39
2018-04-19T10:37:44.904Z,23.59
2018-04-19T10:40:12.352Z,23.57
2018-04-19T10:42:39.890Z,23.55
2018-04-19T10:45:07.457Z,23.28
2018-04-19T10:47:35.025Z,23.39
2018-04-19T10:50:02.518Z,23.62
2018-04-19T10:52:30.056Z,23.88
2018-04-19T10:54:57.557Z,23.92
2018-04-19T10:57:25.015Z,24.01
2018-04-19T10:59:52.588Z,23.87
2018-04-19T11:02:20.080Z,23.70
2018-04-19T11:04:47.587Z,23.55
2018-04-19T11:07:15.079Z,23.58
2018-04-19T11:09:42.544Z,23.37
2018-04-19T11:12:10.000Z,23.33
2018-04-19T11:14:37.471Z,23.36
2018-04-19T11:17:04.978Z,23.37
2018-04-19T11:19:32.440Z,23.68
2018-04-19T11:21:59.920Z,23.80
2018-04-19T11:24:27.394Z,23.60
2018-04-19T11:26:54.883Z,23.58
2018-04-19T11:29:22.416Z,23.75
2018-04-19T11:31:49.880Z,23.79
2018-04-19T11:34:17.433Z,23.87
2018-04-19T11:36:44.898Z,23.94
2018-04-19T11:39:12.406Z,23.77
2018-04-19T11:41:39.901Z,23.94
2018-04-19T11:44:07.355Z,24.11
2018-04-19T11:46:34.915Z,24.36
2018-04-19T11:49:02.413Z,24.35
2018-04-19T11:51:29.877Z,24.31
2018-04-19T11:53:57.444Z,24.13
2018-04-19T11:56:24.905Z,24.06
2018-04-19T11:58:52.417Z,23.90
2018-04-19T12:01:19.908Z,23.90
2018-04-19T12:03:47.402Z,24.04
2018-04-19T12:06:14.977Z,24.13
2018-04-19T12:08:42.495Z,24.24
2018-04-19T12:11:09.959Z,24.53
2018-04-19T12:13:37.577Z,24.49
2018-04-19T12:16:04.975Z,24.50
2018-04-19T12:18:32.453Z,24.61
2018-04-19T12:21:00.078Z,24.52
2018-04-19T12:23:27.544Z,24.45
2018-04-19T12:25:55.011Z,24.51
2018-04-19T12:28:22.488Z,24.55
2018-04-19T12:30:49.965Z,24.62
2018-04-19T12:33:17.520Z,24.87
2018-04-19T12:35:45.004Z,24.81
2018-04-19T12:38:12.488Z,24.79
2018-04-19T12:40:39.985Z,24.91
2018-04-19T12:43:07.567Z,24.96
2018-04-19T12:45:35.065Z,24.54
2018-04-19T12:48:02.581Z,24.43
2018-04-19T12:50:30.071Z,24.51
2018-04-19T12:52:57.577Z,24.62
2018-04-19T12:55:25.107Z,24.63
2018-04-19T12:57:52.597Z,24.74
2018-04-19T13:00:20.047Z,24.87
2018-04-19T13:02:47.536Z,25.09
2018-04-19T13:05:15.063Z,25.19
2018-04-19T13:07:42.581Z,25.09
2018-04-19T13:10:10.106Z,25.08
2018-04-19T13:12:37.589Z,25.02
2018-04-19T13:15:05.061Z,24.98
2018-04-19T13:17:32.683Z,24.93
2018-04-19T13:20:00.139Z,24.93
2018-04-19T13:22:27.595Z,24.74
2018-04-19T13:24:55.133Z,24.52
2018-04-19T13:27:22.622Z,24.56
2018-04-19T13:29:50.096Z,24.68
2018-04-19T13:32:17.572Z,24.84
2018-04-19T13:34:45.024Z,24.84
2018-04-19T13:37:12.490Z,24.65
2018-04-19T13:39:39.952Z,24.61
2018-04-19T13:42:07.448Z,24.70
2018-04-19T13:44:34.992Z,24.81
2018-04-19T13:47:02.443Z,24.94
2018-04-19T13:49:29.933Z,24.84
2018-04-19T13:51:57.403Z,24.80
2018-04-19T13:54:24.907Z,24.86
2018-04-19T13:56:52.402Z,24.79
2018-04-19T13:59:19.899Z,24.71
2018-04-19T14:01:47.373Z,24.75
2018-04-19T14:04:14.865Z,24.77
2018-04-19T14:06:42.448Z,24.85
2018-04-19T14:09:09.904Z,24.93
2018-04-19T14:11:37.400Z,24.92
2018-04-19T14:14:04.875Z,24.86
2018-04-19T14:16:32.355Z,24.97
2018-04-19T14:18:59.868Z,24.81
2018-04-19T14:21:27.478Z,24.88
2018-04-19T14:23:54.988Z,24.97
2018-04-19T14:26:22.518Z,24.97
2018-04-19T14:28:50.021Z,25.02
2018-04-19T14:31:17.516Z,24.83
2018-04-19T14:33:45.088Z,24.84
2018-04-19T14:36:12.628Z,24.93
2018-04-19T14:38:40.177Z,24.82
2018-04-19T14:41:07.666Z,24.80
2018-04-19T14:43:35.182Z,24.88
2018-04-19T14:46:02.636Z,24.96
2018-04-19T14:48:30.132Z,24.81
2018-04-19T14:50:57.654Z,24.94
2018-04-19T14:53:25.147Z,25.06
2018-04-19T14:55:52.673Z,25.12
2018-04-19T14:58:20.167Z,25.21
2018-04-19T15:00:47.773Z,25.45
2018-04-19T15:03:15.294Z,25.66
2018-04-19T15:05:42.759Z,25.59
2018-04-19T15:08:10.231Z,25.48
2018-04-19T15:10:37.679Z,25.33
2018-04-19T15:13:05.171Z,25.21
2018-04-19T15:15:32.645Z,25.24
2018-04-19T15:18:00.100Z,25.14
2018-04-19T15:20:27.595Z,25.17
2018-04-19T15:22:55.081Z,25.14
2018-04-19T15:25:22.761Z,25.35
2018-04-19T15:27:50.222Z,25.42
2018-04-19T15:30:17.696Z,25.77
2018-04-19T15:32:45.274Z,26.76
2018-04-19T15:35:12.827Z,27.95
2018-04-19T15:37:40.337Z,28.50
2018-04-19T15:40:07.954Z,28.61
2018-04-19T15:42:35.432Z,28.37
2018-04-19T15:45:02.917Z,28.43
2018-04-19T15:47:30.407Z,27.68
2018-04-19T15:49:57.874Z,26.92
2018-04-19T15:52:25.408Z,27.11
2018-04-19T15:54:52.883Z,28.10
2018-04-19T15:57:20.365Z,28.43
2018-04-19T15:59:47.846Z,28.64
2018-04-19T16:02:15.331Z,28.81
2018-04-19T16:04:42.813Z,28.86
2018-04-19T16:07:10.262Z,28.71
2018-04-19T16:09:37.860Z,28.08
2018-04-19T16:12:05.430Z,27.62
2018-04-19T16:14:32.949Z,27.18
2018-04-19T16:17:00.393Z,26.80
2018-04-19T16:19:27.877Z,26.56
2018-04-19T16:21:55.368Z,26.43
2018-04-19T16:24:22.893Z,26.23
2018-04-19T16:26:50.417Z,26.07
2018-04-19T16:29:18.031Z,25.95
2018-04-19T16:31:45.573Z,25.63
2018-04-19T16:34:13.114Z,25.56
2018-04-19T16:36:40.561Z,25.97
2018-04-19T16:39:08.071Z,26.24
2018-04-19T16:41:35.620Z,26.42
2018-04-19T16:44:03.095Z,25.97
2018-04-19T16:46:30.594Z,25.45
2018-04-19T16:48:58.063Z,24.96
2018-04-19T16:51:25.547Z,24.53
2018-04-19T16:53:53.020Z,24.35
2018-04-19T16:56:20.548Z,24.31
2018-04-19T16:58:48.007Z,24.22
2018-04-19T17:01:15.519Z,24.12
2018-04-19T17:03:43.016Z,23.99
2018-04-19T17:06:10.584Z,23.95
2018-04-19T17:08:38.036Z,23.90
2018-04-19T17:11:05.615Z,23.85
2018-04-19T17:13:33.078Z,23.87
2018-04-19T17:16:00.560Z,23.83
2018-04-19T17:18:28.070Z,23.74
2018-04-19T17:20:55.535Z,23.70
2018-04-19T17:23:23.023Z,23.61
2018-04-19T17:25:50.520Z,23.56
2018-04-19T17:28:17.996Z,23.50
2018-04-19T17:30:45.493Z,23.48
2018-04-19T17:33:13.028Z,23.45
2018-04-19T17:35:40.571Z,23.41
2018-04-19T17:38:08.034Z,23.38
2018-04-19T17:40:35.619Z,23.28
2018-04-19T17:43:03.104Z,23.21
2018-04-19T17:45:30.581Z,23.16
2018-04-19T17:47:58.143Z,23.09
2018-04-19T17:50:25.628Z,23.03
2018-04-19T17:52:53.112Z,22.96
2018-04-19T17:55:20.573Z,22.87
2018-04-19T17:57:48.066Z,22.76
2018-04-19T18:00:15.735Z,22.68
2018-04-19T18:02:43.239Z,22.59
2018-04-19T18:05:10.756Z,22.51
2018-04-19T18:07:38.211Z,22.41
2018-04-19T18:10:05.669Z,22.37
2018-04-19T18:12:33.127Z,22.27
2018-04-19T18:15:00.576Z,22.19
2018-04-19T18:17:28.086Z,22.16
2018-04-19T18:19:55.559Z,22.14
2018-04-19T18:22:23.104Z,22.17
2018-04-19T18:24:50.617Z,22.13
2018-04-19T18:27:18.103Z,22.05
2018-04-19T18:29:45.656Z,21.97
2018-04-19T18:32:13.180Z,21.84
2018-04-19T18:34:40.649Z,21.75
2018-04-19T18:37:08.155Z,21.67
2018-04-19T18:39:35.625Z,21.66
2018-04-19T18:42:03.117Z,21.60
2018-04-19T18:44:30.730Z,21.54
2018-04-19T18:46:58.215Z,21.44
2018-04-19T18:49:25.705Z,21.40
2018-04-19T18:51:53.167Z,21.34
2018-04-19T18:54:20.640Z,21.30
2018-04-19T18:56:48.177Z,21.22
2018-04-19T18:59:15.654Z,21.18
2018-04-19T19:01:43.178Z,21.12
2018-04-19T19:04:10.655Z,21.09
2018-04-19T19:06:38.187Z,21.00
2018-04-19T19:09:05.651Z,20.96
2018-04-19T19:11:33.371Z,20.94
2018-04-19T19:14:00.932Z,20.92
2018-04-19T19:16:28.479Z,20.86
2018-04-19T19:19:08.009Z,20.83
2018-04-19T19:21:35.603Z,20.77
2018-04-19T19:24:03.124Z,20.70
2018-04-19T19:26:30.818Z,20.65
2018-04-19T19:28:58.344Z,20.59
2018-04-19T19:31:25.836Z,20.53
2018-04-19T19:33:53.322Z,20.47
2018-04-19T19:36:20.805Z,20.42
2018-04-19T19:38:48.254Z,20.38
2018-04-19T19:41:15.764Z,20.34
2018-04-19T19:43:43.258Z,20.26
2018-04-19T19:46:10.758Z,20.20
2018-04-19T19:48:38.258Z,20.14
2018-04-19T19:51:05.772Z,20.12
2018-04-19T19:53:33.295Z,20.07
2018-04-19T19:56:00.764Z,20.04
2018-04-19T19:58:28.369Z,20.02
2018-04-19T20:00:55.934Z,20.03
2018-04-19T20:03:23.395Z,20.00
2018-04-19T20:05:50.959Z,19.96
2018-04-19T20:08:18.508Z,19.94
2018-04-19T20:10:45.953Z,19.90
2018-04-19T20:13:13.448Z,19.82
2018-04-19T20:15:40.924Z,19.75
2018-04-19T20:18:08.386Z,19.67
2018-04-19T20:20:35.832Z,19.59
2018-04-19T20:23:03.301Z,19.57
2018-04-19T20:25:30.795Z,19.54
2018-04-19T20:27:58.280Z,19.50
2018-04-19T20:30:25.768Z,19.49
2018-04-19T20:32:53.288Z,19.46
2018-04-19T20:35:20.793Z,19.45
2018-04-19T20:37:48.247Z,19.39
2018-04-19T20:40:15.730Z,19.35
2018-04-19T20:42:43.276Z,19.31
2018-04-19T20:45:10.732Z,19.24
2018-04-19T20:47:38.219Z,19.20
2018-04-19T20:50:05.796Z,19.17
2018-04-19T20:52:33.299Z,19.12
2018-04-19T20:55:00.756Z,19.11
2018-04-19T20:57:28.250Z,19.08
2018-04-19T20:59:55.784Z,19.04
2018-04-19T21:02:23.334Z,18.98
2018-04-19T21:04:50.792Z,18.92
2018-04-19T21:07:18.301Z,18.90
2018-04-19T21:09:45.804Z,18.85
2018-04-19T21:12:13.281Z,18.82
2018-04-19T21:14:40.776Z,18.80
2018-04-19T21:17:08.266Z,18.77
2018-04-19T21:19:35.764Z,18.75
2018-04-19T21:22:03.219Z,18.73
2018-04-19T21:24:30.666Z,18.68
2018-04-19T21:26:58.213Z,18.61
2018-04-19T21:29:25.650Z,18.57
2018-04-19T21:31:53.111Z,18.54
2018-04-19T21:34:20.573Z,18.50
2018-04-19T21:36:48.084Z,18.45
2018-04-19T21:39:15.527Z,18.44
2018-04-19T21:41:43.060Z,18.40
2018-04-19T21:44:10.567Z,18.42
2018-04-19T21:46:38.024Z,18.37
2018-04-19T21:49:05.530Z,18.32
2018-04-19T21:51:33.138Z,18.28
2018-04-19T21:54:00.649Z,18.33
2018-04-19T21:56:28.193Z,18.31
2018-04-19T21:58:55.639Z,18.29
2018-04-19T22:01:23.189Z,18.27
2018-04-19T22:03:50.698Z,18.23
2018-04-19T22:06:18.248Z,18.16
2018-04-19T22:08:45.723Z,18.15
2018-04-19T22:11:13.240Z,18.13
2018-04-19T22:13:40.735Z,18.08
2018-04-19T22:16:08.192Z,18.05
2018-04-19T22:18:35.695Z,17.92
2018-04-19T22:21:03.152Z,17.83
2018-04-19T22:23:30.600Z,17.78
2018-04-19T22:25:58.136Z,17.71
2018-04-19T22:28:25.703Z,17.64
2018-04-19T22:30:53.224Z,17.57
2018-04-19T22:33:20.709Z,17.51
2018-04-19T22:35:48.193Z,17.42
2018-04-19T22:38:15.712Z,17.35
2018-04-19T22:40:43.184Z,17.29
2018-04-19T22:43:10.636Z,17.22
2018-04-19T22:45:38.167Z,17.17
2018-04-19T22:48:05.645Z,17.10
2018-04-19T22:50:33.097Z,17.05
2018-04-19T22:53:00.618Z,17.02
2018-04-19T22:55:28.103Z,17.00
2018-04-19T22:57:55.703Z,17.02
2018-04-19T23:00:23.995Z,17.05
2018-04-19T23:02:51.514Z,17.07
2018-04-19T23:05:18.991Z,17.08
2018-04-19T23:07:46.492Z,17.09
2018-04-19T23:10:13.971Z,17.08
2018-04-19T23:12:41.453Z,17.07
2018-04-19T23:15:09.049Z,17.05
2018-04-19T23:17:36.559Z,17.02
2018-04-19T23:20:04.062Z,16.98
2018-04-19T23:22:34.446Z,16.95
2018-04-19T23:25:02.099Z,16.92
2018-04-19T23:27:29.589Z,16.92
2018-04-19T23:29:57.076Z,16.88
2018-04-19T23:32:24.584Z,16.84
2018-04-19T23:34:52.173Z,16.80
2018-04-19T23:37:19.674Z,16.77
2018-04-19T23:39:47.180Z,16.74
2018-04-19T23:42:14.745Z,16.71
2018-04-19T23:44:42.242Z,16.64
2018-04-19T23:47:09.756Z,16.61
2018-04-19T23:49:37.322Z,16.59
2018-04-19T23:52:04.813Z,16.55
2018-04-19T23:54:32.354Z,16.50
2018-04-19T23:56:59.853Z,16.47
2018-04-19T23:59:27.337Z,16.43
